Time;durP1;ratioP1;P1;durP2;ratioP2;P2;SDS_P1;SDS_P2;PMS_P1;PMS_P2;Temp;Humidity;BMP_temperature;BMP_pressure;BME280_temperature;BME280_humidity;BME280_pressure;Samples;Min_cycle;Max_cycle;Signal;HPM_P1;HPM_P2
2021/04/05 00:01:20;;;;;;;10.43;1.77;;;9.30;74.00;;;;;;5052897;28;20550;-85
2021/04/05 00:03:46;;;;;;;2.80;1.60;;;9.00;74.90;;;;;;5057914;28;20021;-86
2021/04/05 00:06:12;;;;;;;0.10;0.10;;;8.80;75.70;;;;;;5058850;28;20523;-86
2021/04/05 00:08:38;;;;;;;0.03;0.03;;;9.00;74.90;;;;;;5051918;28;20049;-86
2021/04/05 00:11:04;;;;;;;0.10;0.10;;;9.00;75.40;;;;;;5065322;28;20068;-86
2021/04/05 00:13:36;;;;;;;0.10;0.10;;;8.80;76.60;;;;;;5055618;28;20025;-86
2021/04/05 00:16:02;;;;;;;1.38;1.27;;;9.00;76.80;;;;;;5050655;28;20060;-87
2021/04/05 00:18:28;;;;;;;0.10;0.10;;;8.90;76.10;;;;;;5059831;28;20056;-86
2021/04/05 00:21:30;;;;;;;0.20;0.20;;;8.60;77.30;;;;;;5061907;28;20032;-87
2021/04/05 00:23:55;;;;;;;0.20;0.20;;;8.60;78.10;;;;;;5008728;28;20443;-87
2021/04/05 00:26:22;;;;;;;0.20;0.20;;;8.70;77.40;;;;;;5018766;28;20049;-86
2021/04/05 00:28:49;;;;;;;0.10;0.10;;;8.70;77.60;;;;;;5017148;28;20084;-85
2021/04/05 00:31:15;;;;;;;0.13;0.13;;;8.50;78.50;;;;;;5013494;28;20053;-86
2021/04/05 00:33:41;;;;;;;0.10;0.10;;;8.50;78.20;;;;;;5009931;28;20529;-87
2021/04/05 00:36:07;;;;;;;0.20;0.20;;;8.40;79.70;;;;;;5017108;28;20028;-85
2021/04/05 00:38:33;;;;;;;0.10;0.10;;;8.40;78.50;;;;;;5021495;28;20069;-84
2021/04/05 00:41:25;;;;;;;0.30;0.30;;;8.30;79.70;;;;;;5022776;28;20037;-85
2021/04/05 00:43:52;;;;;;;0.13;0.13;;;8.60;79.20;;;;;;4994881;28;20128;-85
2021/04/05 00:46:26;;;;;;;0.60;0.60;;;8.40;79.30;;;;;;5013581;28;20026;-85
2021/04/05 00:48:52;;;;;;;0.00;0.00;;;8.40;79.20;;;;;;4992937;28;20413;-85
2021/04/05 00:51:21;;;;;;;0.20;0.20;;;8.30;79.80;;;;;;4994291;28;20113;-84
2021/04/05 00:53:48;;;;;;;0.20;0.20;;;8.20;81.10;;;;;;5020990;28;20042;-85
2021/04/05 00:56:16;;;;;;;4.28;1.17;;;8.00;81.80;;;;;;5012072;28;20841;-85
2021/04/05 00:58:42;;;;;;;0.10;0.10;;;7.70;81.80;;;;;;5043436;28;20033;-85
2021/04/05 01:01:10;;;;;;;0.10;0.10;;;8.00;81.20;;;;;;5052496;28;20100;-85
2021/04/05 01:03:41;;;;;;;0.10;0.10;;;7.90;81.60;;;;;;5054530;28;20020;-85
2021/04/05 01:06:14;;;;;;;0.10;0.10;;;8.00;81.50;;;;;;5053974;28;20389;-85
2021/04/05 01:08:40;;;;;;;0.30;0.30;;;7.90;82.10;;;;;;5050582;28;20128;-85
2021/04/05 01:11:08;;;;;;;0.10;0.10;;;7.70;83.00;;;;;;5054622;28;20460;-85
2021/04/05 01:13:34;;;;;;;0.20;0.20;;;7.50;83.50;;;;;;5059781;28;20037;-85
2021/04/05 01:16:00;;;;;;;0.10;0.10;;;7.50;84.10;;;;;;5060775;28;20083;-85
2021/04/05 01:18:28;;;;;;;0.22;0.22;;;7.50;84.10;;;;;;5050368;28;20032;-85
2021/04/05 01:20:55;;;;;;;27.67;0.80;;;7.40;84.50;;;;;;5058606;28;20032;-85
2021/04/05 01:23:22;;;;;;;0.40;0.40;;;7.60;84.70;;;;;;5058335;28;20551;-85
2021/04/05 01:25:48;;;;;;;0.20;0.20;;;7.60;85.30;;;;;;5049759;28;20116;-85
2021/04/05 01:28:14;;;;;;;0.13;0.13;;;7.50;85.00;;;;;;5054135;28;20079;-86
2021/04/05 01:30:45;;;;;;;0.20;0.20;;;7.40;85.10;;;;;;5057121;28;20067;-85
2021/04/05 01:33:18;;;;;;;0.55;0.55;;;7.50;85.20;;;;;;5054514;28;20036;-85
2021/04/05 01:35:50;;;;;;;0.10;0.10;;;7.20;85.80;;;;;;5065543;28;20057;-86
2021/04/05 01:38:22;;;;;;;0.20;0.20;;;7.40;86.20;;;;;;5058048;28;20037;-86
2021/04/05 01:40:52;;;;;;;0.10;0.10;;;7.30;86.50;;;;;;5057117;28;20063;-85
2021/04/05 01:43:18;;;;;;;0.10;0.10;;;7.20;86.90;;;;;;5056386;28;20047;-85
2021/04/05 01:45:44;;;;;;;0.90;0.55;;;7.30;86.90;;;;;;5065830;28;20547;-85
2021/04/05 01:48:11;;;;;;;0.15;0.15;;;7.10;86.60;;;;;;5064245;28;20036;-85
2021/04/05 01:50:37;;;;;;;0.28;0.28;;;7.30;86.30;;;;;;5072034;28;20021;-85
2021/04/05 01:53:05;;;;;;;0.10;0.10;;;7.20;86.70;;;;;;5051644;28;20937;-85
2021/04/05 01:55:35;;;;;;;0.10;0.10;;;7.20;86.60;;;;;;5057614;28;20111;-84
2021/04/05 01:58:02;;;;;;;0.20;0.20;;;7.10;87.50;;;;;;5049502;28;20033;-85
2021/04/05 02:00:31;;;;;;;0.10;0.10;;;6.90;89.00;;;;;;5052708;28;20064;-86
2021/04/05 02:02:58;;;;;;;0.10;0.10;;;6.70;89.90;;;;;;5045239;28;20024;-86
2021/04/05 02:05:27;;;;;;;0.20;0.20;;;6.90;89.50;;;;;;5054015;28;20021;-86
2021/04/05 02:07:53;;;;;;;0.45;0.32;;;6.70;90.10;;;;;;5055574;28;20512;-86
2021/04/05 02:10:25;;;;;;;0.10;0.10;;;7.00;89.10;;;;;;5060941;28;20029;-85
2021/04/05 02:12:52;;;;;;;0.10;0.10;;;6.80;90.10;;;;;;5061234;28;20298;-86
2021/04/05 02:15:19;;;;;;;0.10;0.10;;;6.90;90.10;;;;;;5053948;28;20552;-86
2021/04/05 02:17:46;;;;;;;0.25;0.25;;;6.80;90.10;;;;;;5052519;28;20028;-86
2021/04/05 02:20:13;;;;;;;;;;;6.90;89.20;;;;;;5066342;28;20067;-86
2021/04/05 02:22:47;;;;;;;0.10;0.10;;;6.70;90.20;;;;;;5055515;28;19909;-86
2021/04/05 02:25:18;;;;;;;0.17;0.17;;;6.60;90.40;;;;;;5062759;28;20025;-86
2021/04/05 02:27:47;;;;;;;1.33;0.82;;;6.70;90.40;;;;;;5057607;28;20036;-85
2021/04/05 02:30:22;;;;;;;0.10;0.10;;;6.60;90.40;;;;;;5058311;28;20537;-85
2021/04/05 02:32:59;;;;;;;0.10;0.10;;;6.50;90.60;;;;;;5052555;28;20025;-86
2021/04/05 02:35:27;;;;;;;0.10;0.10;;;6.60;90.60;;;;;;5058159;28;20056;-86
2021/04/05 02:37:55;;;;;;;0.25;0.25;;;6.50;91.00;;;;;;5048240;28;20037;-86
2021/04/05 02:40:22;;;;;;;0.65;0.65;;;6.30;91.60;;;;;;5053541;28;20028;-86
2021/04/05 02:42:49;;;;;;;0.20;0.20;;;6.20;91.70;;;;;;5061601;28;20036;-87
2021/04/05 02:45:17;;;;;;;0.30;0.30;;;6.30;91.40;;;;;;5057422;28;20075;-87
2021/04/05 02:47:43;;;;;;;0.20;0.20;;;6.30;91.50;;;;;;5048660;28;20045;-87
2021/04/05 02:50:10;;;;;;;0.15;0.15;;;6.30;91.70;;;;;;5054528;28;20488;-88
2021/04/05 02:52:37;;;;;;;0.30;0.30;;;6.10;91.60;;;;;;5064566;28;20028;-86
2021/04/05 02:55:04;;;;;;;;;;;6.10;92.00;;;;;;5047533;28;20181;-87
2021/04/05 02:57:32;;;;;;;0.32;0.32;;;6.00;92.20;;;;;;5048354;28;19909;-87
2021/04/05 02:59:58;;;;;;;0.20;0.20;;;5.90;92.40;;;;;;5051532;28;20229;-86
2021/04/05 03:02:25;;;;;;;0.60;0.60;;;5.90;92.50;;;;;;5056593;28;20115;-87
2021/04/05 03:04:51;;;;;;;0.10;0.10;;;5.80;92.80;;;;;;5054838;28;20033;-86
2021/04/05 03:07:16;;;;;;;0.10;0.10;;;5.80;92.80;;;;;;5058842;28;20048;-87
2021/04/05 03:09:42;;;;;;;0.30;0.30;;;5.80;92.90;;;;;;5060532;28;20017;-87
2021/04/05 03:12:09;;;;;;;0.20;0.20;;;5.70;93.00;;;;;;5048636;28;20025;-87
2021/04/05 03:14:35;;;;;;;0.15;0.15;;;5.70;93.10;;;;;;5054342;28;20032;-87
2021/04/05 03:17:02;;;;;;;0.80;0.80;;;5.80;93.20;;;;;;5052738;28;20125;-87
2021/04/05 03:19:28;;;;;;;;;;;5.80;93.00;;;;;;5043372;28;20041;-87
2021/04/05 03:21:55;;;;;;;0.10;0.10;;;5.70;93.50;;;;;;5047954;28;20395;-87
2021/04/05 03:24:21;;;;;;;0.10;0.10;;;5.60;93.60;;;;;;5048833;28;20033;-86
2021/04/05 03:26:47;;;;;;;0.10;0.10;;;5.60;93.80;;;;;;5054380;28;20036;-87
2021/04/05 03:29:16;;;;;;;0.30;0.30;;;5.50;93.90;;;;;;5058472;28;20866;-86
2021/04/05 03:31:43;;;;;;;0.52;0.52;;;5.50;94.20;;;;;;5057097;28;20017;-86
2021/04/05 03:34:15;;;;;;;0.45;0.45;;;5.50;93.90;;;;;;5051399;28;20032;-87
2021/04/05 03:36:51;;;;;;;0.10;0.10;;;5.40;94.30;;;;;;5048377;28;20025;-87
2021/04/05 03:39:17;;;;;;;0.20;0.20;;;5.40;94.80;;;;;;5055682;28;20029;-86
2021/04/05 03:42:18;;;;;;;0.10;0.10;;;5.40;94.40;;;;;;5048524;28;20025;-86
2021/04/05 03:45:04;;;;;;;0.10;0.10;;;5.30;94.60;;;;;;4986040;28;20034;-87
2021/04/05 03:47:37;;;;;;;0.10;0.10;;;5.20;94.90;;;;;;4959644;28;20092;-87
2021/04/05 03:50:36;;;;;;;0.95;0.57;;;5.10;95.30;;;;;;4981931;28;20506;-87
2021/04/05 03:53:12;;;;;;;0.40;0.40;;;5.00;95.70;;;;;;4985235;28;20085;-86
2021/04/05 03:55:40;;;;;;;0.20;0.20;;;5.00;95.50;;;;;;4977819;28;20031;-87
2021/04/05 03:58:08;;;;;;;0.20;0.20;;;5.10;95.50;;;;;;4977490;28;20196;-86
2021/04/05 04:00:36;;;;;;;0.10;0.10;;;5.10;95.60;;;;;;4985696;28;20831;-86
2021/04/05 04:03:06;;;;;;;0.30;0.30;;;5.00;95.70;;;;;;4983884;28;20121;-86
2021/04/05 04:08:13;;;;;;;1.05;1.05;;;5.00;95.90;;;;;;4982733;28;20464;-86
2021/04/05 04:10:44;;;;;;;0.32;0.32;;;5.10;96.10;;;;;;4985432;28;20022;-86
2021/04/05 04:13:12;;;;;;;0.15;0.15;;;5.00;96.30;;;;;;4984384;28;20070;-87
2021/04/05 04:15:39;;;;;;;0.20;0.20;;;4.90;96.70;;;;;;4987668;28;20022;-86
2021/04/05 04:18:05;;;;;;;0.30;0.30;;;4.80;96.60;;;;;;4964168;28;20053;-86
2021/04/05 04:20:33;;;;;;;0.10;0.10;;;4.90;96.70;;;;;;5022029;28;20041;-85
2021/04/05 04:22:59;;;;;;;0.10;0.10;;;4.90;96.70;;;;;;5051484;28;20056;-86
2021/04/05 04:25:25;;;;;;;0.32;0.32;;;4.80;96.90;;;;;;5054182;28;20044;-86
2021/04/05 04:27:52;;;;;;;0.38;0.38;;;4.90;96.70;;;;;;5061346;28;20032;-85
2021/04/05 04:30:33;;;;;;;0.10;0.10;;;5.00;96.60;;;;;;5065418;28;20029;-85
2021/04/05 04:33:06;;;;;;;0.20;0.20;;;4.90;96.70;;;;;;5057987;28;20040;-86
2021/04/05 04:35:34;;;;;;;0.20;0.20;;;4.80;97.00;;;;;;5069230;28;20833;-86
2021/04/05 04:38:01;;;;;;;0.57;0.57;;;4.70;97.40;;;;;;5060670;28;20035;-86
2021/04/05 04:40:29;;;;;;;0.30;0.30;;;4.50;97.60;;;;;;5060111;28;20020;-86
2021/04/05 04:42:57;;;;;;;0.20;0.20;;;4.50;97.70;;;;;;5061399;28;20900;-86
2021/04/05 04:45:23;;;;;;;1.05;1.00;;;4.60;97.80;;;;;;5052009;28;20028;-87
2021/04/05 04:47:54;;;;;;;0.10;0.10;;;4.60;97.80;;;;;;5060573;28;20945;-88
2021/04/05 04:50:21;;;;;;;0.10;0.10;;;4.60;97.80;;;;;;5051221;28;20515;-86
2021/04/05 04:52:48;;;;;;;1.42;1.33;;;4.50;98.10;;;;;;5060547;28;20032;-87
2021/04/05 04:55:15;;;;;;;0.30;0.30;;;4.50;98.30;;;;;;5052182;28;20029;-87
2021/04/05 04:57:41;;;;;;;0.10;0.10;;;4.60;98.30;;;;;;5051996;28;20032;-86
2021/04/05 05:00:08;;;;;;;0.10;0.10;;;4.40;98.60;;;;;;5056331;28;20024;-86
2021/04/05 05:02:42;;;;;;;1.27;0.93;;;4.30;99.00;;;;;;5056773;28;20033;-88
2021/04/05 05:05:11;;;;;;;0.10;0.10;;;4.30;98.70;;;;;;5056266;28;20389;-88
2021/04/05 05:07:39;;;;;;;0.10;0.10;;;4.30;99.20;;;;;;5055472;28;20072;-87
2021/04/05 05:10:12;;;;;;;0.10;0.10;;;4.20;99.10;;;;;;5053507;28;20064;-86
2021/04/05 05:12:39;;;;;;;0.20;0.20;;;4.20;99.50;;;;;;5056517;28;20551;-86
2021/04/05 05:15:13;;;;;;;0.20;0.20;;;4.10;99.80;;;;;;5055620;28;20061;-87
2021/04/05 05:17:47;;;;;;;0.10;0.10;;;4.00;99.60;;;;;;5057326;28;20033;-85
2021/04/05 05:20:15;;;;;;;0.20;0.20;;;4.10;99.70;;;;;;5064293;28;20306;-86
2021/04/05 05:22:49;;;;;;;0.10;0.10;;;4.00;99.90;;;;;;5060490;28;20396;-86
2021/04/05 05:25:18;;;;;;;0.10;0.10;;;3.90;99.90;;;;;;5060870;28;20150;-86
2021/04/05 05:28:05;;;;;;;0.10;0.10;;;3.80;99.90;;;;;;5053559;28;20412;-86
2021/04/05 05:30:31;;;;;;;0.10;0.10;;;3.70;99.90;;;;;;5055284;28;20024;-86
2021/04/05 05:33:03;;;;;;;0.10;0.10;;;3.60;99.90;;;;;;5051494;28;20021;-86
2021/04/05 05:35:31;;;;;;;0.30;0.30;;;3.70;99.90;;;;;;5048509;28;20021;-85
2021/04/05 05:38:02;;;;;;;0.30;0.30;;;3.90;99.90;;;;;;5054159;28;20042;-86
2021/04/05 05:40:28;;;;;;;0.43;0.43;;;4.00;99.90;;;;;;5054035;28;20025;-86
2021/04/05 05:43:00;;;;;;;0.25;0.25;;;4.20;99.90;;;;;;5057513;28;20035;-86
2021/04/05 05:45:32;;;;;;;0.10;0.10;;;4.40;99.90;;;;;;5053341;28;20033;-86
2021/04/05 05:48:09;;;;;;;0.10;0.10;;;4.80;99.90;;;;;;5058117;28;20053;-86
2021/04/05 05:50:38;;;;;;;;;;;5.10;99.90;;;;;;5066134;28;20035;-87
2021/04/05 05:53:35;;;;;;;0.63;0.63;;;5.30;99.90;;;;;;5059710;28;19958;-85
2021/04/05 05:56:25;;;;;;;3.30;1.30;;;5.60;99.90;;;;;;5053455;28;20043;-90
2021/04/05 05:59:19;;;;;;;0.77;0.77;;;5.60;99.90;;;;;;5061674;28;20393;-87
2021/04/05 06:01:56;;;;;;;0.10;0.10;;;5.90;99.90;;;;;;5055090;28;20086;-88
2021/04/05 06:05:06;;;;;;;0.45;0.32;;;6.20;99.90;;;;;;5053767;28;20028;-88
2021/04/05 06:08:08;;;;;;;0.10;0.10;;;6.30;99.90;;;;;;5050987;28;20052;-87
2021/04/05 06:11:06;;;;;;;0.10;0.10;;;6.40;99.90;;;;;;5069634;28;20024;-87
2021/04/05 06:14:00;;;;;;;0.13;0.13;;;6.60;99.90;;;;;;5049305;28;20057;-87
2021/04/05 06:16:42;;;;;;;0.20;0.20;;;6.70;99.90;;;;;;5055756;28;20028;-88
2021/04/05 06:19:29;;;;;;;0.20;0.20;;;6.90;99.90;;;;;;5052570;28;20066;-88
2021/04/05 06:22:23;;;;;;;0.10;0.10;;;7.10;99.10;;;;;;5062933;28;20456;-88
2021/04/05 06:25:06;;;;;;;0.10;0.10;;;7.40;98.80;;;;;;5057008;28;20024;-87
2021/04/05 06:28:05;;;;;;;0.00;0.00;;;7.50;99.00;;;;;;5053591;28;20032;-88
2021/04/05 06:31:16;;;;;;;0.00;0.00;;;7.70;98.50;;;;;;5063419;28;20058;-88
2021/04/05 06:33:50;;;;;;;0.03;0.03;;;8.10;97.90;;;;;;5048468;28;20484;-90
2021/04/05 06:36:21;;;;;;;0.60;0.60;;;8.40;97.40;;;;;;5067893;28;20036;-89
2021/04/05 06:39:03;;;;;;;0.10;0.10;;;8.30;97.60;;;;;;5062487;28;20397;-88
2021/04/05 06:41:37;;;;;;;0.08;0.08;;;8.60;97.10;;;;;;5077545;28;20396;-89
2021/04/05 06:44:31;;;;;;;0.22;0.20;;;9.10;96.30;;;;;;5057187;28;20028;-89
2021/04/05 06:47:12;;;;;;;0.00;0.00;;;9.20;96.50;;;;;;5070238;28;20081;-90
2021/04/05 06:50:12;;;;;;;0.25;0.25;;;9.40;95.90;;;;;;5057471;28;20021;-90
2021/04/05 06:53:00;;;;;;;0.00;0.00;;;10.00;95.10;;;;;;5005159;28;20044;-89
2021/04/05 06:55:44;;;;;;;0.10;0.10;;;10.10;94.70;;;;;;4994185;28;20041;-87
2021/04/05 06:58:18;;;;;;;0.10;0.10;;;10.40;94.40;;;;;;5009036;28;20029;-89
2021/04/05 07:01:11;;;;;;;0.10;0.10;;;10.70;94.10;;;;;;5015934;28;20046;-89
2021/04/05 07:04:04;;;;;;;0.00;0.00;;;10.70;93.90;;;;;;5010593;28;20133;-87
2021/04/05 07:06:49;;;;;;;0.45;0.45;;;11.40;91.90;;;;;;5005538;28;20052;-87
2021/04/05 07:09:43;;;;;;;0.10;0.10;;;11.40;93.20;;;;;;5017414;28;20326;-90
2021/04/05 07:12:28;;;;;;;0.10;0.10;;;11.80;92.00;;;;;;5001580;28;20165;-84
2021/04/05 07:15:24;;;;;;;0.10;0.10;;;11.80;92.50;;;;;;5002124;28;20549;-82
2021/04/05 07:18:02;;;;;;;0.10;0.10;;;12.00;92.00;;;;;;5005638;28;20049;-84
2021/04/05 07:21:03;;;;;;;0.45;0.45;;;12.40;91.20;;;;;;5010643;28;20034;-85
2021/04/05 07:23:54;;;;;;;0.32;0.32;;;12.30;91.60;;;;;;4987895;28;20037;-84
2021/04/05 07:27:00;;;;;;;0.10;0.10;;;12.40;91.30;;;;;;4985511;28;20117;-86
2021/04/05 07:29:56;;;;;;;0.25;0.25;;;13.10;90.70;;;;;;5005533;28;20150;-84
2021/04/05 07:32:45;;;;;;;0.10;0.10;;;12.90;90.90;;;;;;5009874;28;20065;-86
2021/04/05 07:35:27;;;;;;;0.40;0.40;;;13.60;88.60;;;;;;5004508;28;20038;-85
2021/04/05 07:38:06;;;;;;;5.72;0.80;;;13.90;86.90;;;;;;5008504;28;20042;-85
2021/04/05 07:40:47;;;;;;;0.22;0.22;;;13.50;87.60;;;;;;4993021;28;20493;-85
2021/04/05 07:43:32;;;;;;;0.00;0.00;;;13.50;89.40;;;;;;5004146;28;20045;-86
2021/04/05 07:46:33;;;;;;;0.20;0.20;;;13.50;86.40;;;;;;4980880;28;20120;-85
2021/04/05 07:49:24;;;;;;;0.20;0.20;;;15.80;81.90;;;;;;5003324;28;20033;-86
2021/04/05 07:52:21;;;;;;;0.00;0.00;;;16.40;74.20;;;;;;5009003;28;20125;-86
2021/04/05 07:54:49;;;;;;;0.10;0.10;;;17.30;72.30;;;;;;4988992;28;20045;-86
2021/04/05 07:57:28;;;;;;;0.00;0.00;;;17.50;72.10;;;;;;5000585;28;20095;-84
2021/04/05 08:00:27;;;;;;;0.52;0.20;;;18.30;72.70;;;;;;4974852;28;20406;-86
2021/04/05 08:03:22;;;;;;;0.10;0.10;;;17.60;74.30;;;;;;4994021;28;20108;-86
2021/04/05 08:06:11;;;;;;;0.00;0.00;;;18.80;70.30;;;;;;4969906;28;20040;-84
2021/04/05 08:08:59;;;;;;;1.33;0.77;;;19.10;67.00;;;;;;4985857;28;20588;-84
2021/04/05 08:11:53;;;;;;;0.15;0.15;;;20.70;63.30;;;;;;4989485;28;20124;-84
2021/04/05 08:14:35;;;;;;;0.10;0.10;;;19.90;62.40;;;;;;5051972;28;20029;-85
2021/04/05 08:17:22;;;;;;;0.90;0.75;;;20.20;57.80;;;;;;5050735;28;20029;-85
2021/04/05 08:20:17;;;;;;;0.10;0.10;;;21.80;56.50;;;;;;5054160;28;20029;-85
2021/04/05 08:23:06;;;;;;;0.00;0.00;;;22.00;57.30;;;;;;4973525;28;20105;-86
2021/04/05 08:25:45;;;;;;;0.10;0.10;;;21.70;54.10;;;;;;4979984;28;20561;-88
2021/04/05 08:28:12;;;;;;;0.20;0.20;;;23.00;45.70;;;;;;4966730;28;20684;-88
2021/04/05 08:30:51;;;;;;;0.10;0.10;;;24.20;44.60;;;;;;4983704;28;20122;-87
2021/04/05 08:34:05;;;;;;;0.13;0.13;;;25.20;43.50;;;;;;4980445;28;20146;-88
2021/04/05 08:36:51;;;;;;;0.00;0.00;;;26.10;39.20;;;;;;4977328;28;20103;-88
2021/04/05 08:39:54;;;;;;;1.98;1.15;;;25.50;40.60;;;;;;4982436;28;20116;-88
2021/04/05 08:42:59;;;;;;;0.20;0.20;;;26.00;44.50;;;;;;4977139;28;20193;-89
2021/04/05 08:45:52;;;;;;;0.00;0.00;;;26.10;37.80;;;;;;4972712;28;20100;-88
2021/04/05 08:48:21;;;;;;;0.00;0.00;;;27.20;35.30;;;;;;4980468;28;20038;-88
2021/04/05 08:51:05;;;;;;;0.10;0.10;;;26.90;35.60;;;;;;4970587;28;20485;-88
2021/04/05 08:53:36;;;;;;;0.32;0.32;;;26.80;35.80;;;;;;4979785;28;20034;-88
2021/04/05 08:56:03;;;;;;;0.22;0.22;;;27.70;46.10;;;;;;4981197;28;20436;-89
2021/04/05 08:58:38;;;;;;;0.15;0.15;;;26.70;36.50;;;;;;4984048;28;20034;-90
2021/04/05 09:01:11;;;;;;;0.25;0.22;;;26.80;35.00;;;;;;5051832;28;20511;-89
2021/04/05 09:03:42;;;;;;;0.10;0.10;;;28.60;31.90;;;;;;5054229;28;20016;-89
2021/04/05 09:06:13;;;;;;;0.30;0.30;;;28.60;29.10;;;;;;5054111;28;20507;-88
2021/04/05 09:08:43;;;;;;;0.63;0.40;;;28.20;27.90;;;;;;5052435;28;20095;-89
2021/04/05 09:11:11;;;;;;;1.95;0.22;;;27.50;33.20;;;;;;5054067;28;20025;-90
2021/04/05 09:13:42;;;;;;;0.22;0.22;;;29.10;26.20;;;;;;5049945;28;20018;-88
2021/04/05 09:16:40;;;;;;;0.08;0.08;;;27.50;24.90;;;;;;5054024;28;20024;-90
2021/04/05 09:19:42;;;;;;;0.10;0.10;;;28.00;26.20;;;;;;5048707;28;20389;-90
2021/04/05 09:22:27;;;;;;;0.10;0.10;;;27.40;28.60;;;;;;5060848;28;20094;-91
2021/04/05 09:25:34;;;;;;;0.40;0.40;;;27.90;27.00;;;;;;5053443;28;20021;-92
2021/04/05 09:28:38;;;;;;;0.20;0.20;;;27.80;30.20;;;;;;5051468;28;20036;-89
2021/04/05 09:31:57;;;;;;;0.20;0.20;;;27.70;30.00;;;;;;5051673;28;20028;-89
2021/04/05 09:34:51;;;;;;;0.88;0.35;;;27.20;28.80;;;;;;5012435;28;20033;-89
2021/04/05 09:37:37;;;;;;;0.30;0.30;;;28.10;27.40;;;;;;5064917;28;20443;-88
2021/04/05 09:40:25;;;;;;;0.10;0.10;;;27.90;25.90;;;;;;5048730;28;20030;-88
2021/04/05 09:43:21;;;;;;;0.20;0.20;;;27.80;26.40;;;;;;5058394;28;20595;-90
2021/04/05 09:46:39;;;;;;;0.00;0.00;;;28.10;23.40;;;;;;5054909;28;20120;-89
2021/04/05 09:49:29;;;;;;;0.10;0.10;;;27.80;27.40;;;;;;5052383;28;20044;-90
2021/04/05 09:52:18;;;;;;;0.00;0.00;;;27.20;24.90;;;;;;5045183;28;20032;-89
2021/04/05 09:55:02;;;;;;;0.00;0.00;;;28.70;20.40;;;;;;5055242;28;20025;-90
2021/04/05 09:57:56;;;;;;;1.48;0.63;;;26.30;25.50;;;;;;5061472;28;20035;-90
2021/04/05 10:00:39;;;;;;;0.10;0.10;;;26.80;29.40;;;;;;5051446;28;20028;-90
2021/04/05 10:03:17;;;;;;;0.30;0.30;;;27.80;27.20;;;;;;5070157;28;20021;-91
2021/04/05 10:05:45;;;;;;;0.10;0.10;;;28.40;26.60;;;;;;5056767;28;20107;-92
2021/04/05 10:08:18;;;;;;;0.20;0.20;;;28.20;23.40;;;;;;5049072;28;20049;-91
2021/04/05 10:10:45;;;;;;;4.38;0.80;;;25.60;30.80;;;;;;5051066;28;20029;-91
2021/04/05 10:13:13;;;;;;;0.08;0.08;;;25.70;29.20;;;;;;5054305;28;20013;-91
2021/04/05 10:15:43;;;;;;;0.10;0.10;;;25.30;29.40;;;;;;5048987;28;20576;-92
2021/04/05 10:18:12;;;;;;;0.00;0.00;;;26.50;25.90;;;;;;5053408;28;20017;-91
2021/04/05 10:20:38;;;;;;;0.17;0.17;;;27.40;26.60;;;;;;5062723;28;20036;-92
2021/04/05 10:23:07;;;;;;;0.10;0.10;;;25.80;26.00;;;;;;5049537;28;20052;-91
2021/04/05 10:25:35;;;;;;;0.00;0.00;;;26.90;26.10;;;;;;5058814;28;20348;-93
2021/04/05 10:28:06;;;;;;;0.22;0.22;;;27.20;28.60;;;;;;5054905;28;20029;-92
2021/04/05 10:30:38;;;;;;;0.20;0.20;;;26.70;27.60;;;;;;5044575;28;20043;-92
2021/04/05 10:33:16;;;;;;;0.32;0.20;;;26.20;29.70;;;;;;5056276;28;20078;-91
2021/04/05 10:35:51;;;;;;;1.10;0.55;;;25.30;32.90;;;;;;5051142;28;20032;-91
2021/04/05 10:38:22;;;;;;;0.00;0.00;;;26.80;28.70;;;;;;5052096;28;20500;-92
2021/04/05 10:40:53;;;;;;;0.10;0.10;;;28.40;24.40;;;;;;5048489;28;20051;-92
2021/04/05 10:44:05;;;;;;;0.95;0.73;;;29.50;21.30;;;;;;5053850;28;20013;-91
2021/04/05 10:46:39;;;;;;;0.20;0.20;;;28.30;24.30;;;;;;5067533;28;20025;-89
2021/04/05 10:49:18;;;;;;;0.10;0.10;;;25.80;29.50;;;;;;5042931;28;20032;-89
2021/04/05 10:51:54;;;;;;;0.10;0.10;;;27.30;25.60;;;;;;5056493;28;20012;-90
2021/04/05 10:54:42;;;;;;;0.28;0.28;;;26.90;26.20;;;;;;5045034;28;20025;-90
2021/04/05 10:57:19;;;;;;;0.38;0.38;;;26.00;30.20;;;;;;5073819;28;20426;-93
2021/04/05 10:59:51;;;;;;;0.45;0.45;;;26.60;27.40;;;;;;5059230;28;20082;-91
2021/04/05 11:02:31;;;;;;;0.30;0.22;;;26.80;28.20;;;;;;5080604;28;20033;-88
2021/04/05 11:05:13;;;;;;;0.40;0.40;;;26.30;26.60;;;;;;5064079;28;20483;-91
2021/04/05 11:07:42;;;;;;;0.30;0.30;;;25.80;28.40;;;;;;5032058;28;20049;-92
2021/04/05 11:10:16;;;;;;;0.55;0.55;;;25.60;31.50;;;;;;5051806;28;20025;-93
2021/04/05 11:12:50;;;;;;;0.30;0.30;;;27.10;28.00;;;;;;5049240;28;20025;-94
2021/04/05 11:15:24;;;;;;;0.22;0.20;;;26.60;26.60;;;;;;5055694;28;20025;-96
2021/04/05 11:17:57;;;;;;;0.10;0.10;;;27.70;24.00;;;;;;5056081;28;20029;-95
2021/04/05 11:27:35;;;;;;;0.10;0.10;;;26.80;25.40;;;;;;5059700;28;20028;-94
2021/04/05 11:30:05;;;;;;;0.00;0.00;;;25.30;29.80;;;;;;5075411;28;20029;-93
2021/04/05 11:32:38;;;;;;;0.17;0.17;;;25.70;28.50;;;;;;5058714;28;20055;-94
2021/04/05 11:35:10;;;;;;;0.47;0.43;;;25.90;27.90;;;;;;5056362;28;20075;-94
2021/04/05 11:37:41;;;;;;;0.28;0.28;;;23.80;34.20;;;;;;5056302;28;20025;-93
2021/04/05 11:40:14;;;;;;;1.95;0.57;;;19.60;39.60;;;;;;5056132;28;20025;-93
2021/04/05 11:42:46;;;;;;;0.20;0.20;;;18.50;41.10;;;;;;5057453;28;20057;-94
2021/04/05 11:45:33;;;;;;;0.10;0.10;;;18.20;43.50;;;;;;5057918;28;20029;-94
2021/04/05 11:48:18;;;;;;;0.00;0.00;;;18.10;43.80;;;;;;5037551;28;20078;-94
2021/04/05 11:50:46;;;;;;;0.22;0.22;;;18.00;44.40;;;;;;5064806;28;20032;-95
2021/04/05 11:53:48;;;;;;;0.20;0.20;;;18.30;44.10;;;;;;5064666;28;20021;-94
2021/04/05 11:56:36;;;;;;;0.10;0.10;;;18.50;44.50;;;;;;5063116;28;20060;-95
2021/04/05 11:59:23;;;;;;;0.30;0.30;;;18.10;46.10;;;;;;5010486;28;20034;-95
2021/04/05 12:01:59;;;;;;;0.10;0.10;;;17.90;46.90;;;;;;5003033;28;20038;-92
2021/04/05 12:04:35;;;;;;;5.07;1.27;;;18.00;47.20;;;;;;5029371;28;20490;-89
2021/04/05 12:07:07;;;;;;;1.60;0.63;;;18.20;46.20;;;;;;5014439;28;20042;-92
2021/04/05 12:09:57;;;;;;;0.30;0.30;;;18.40;57.50;;;;;;5033322;28;20511;-92
2021/04/05 12:12:39;;;;;;;0.10;0.10;;;18.10;46.50;;;;;;5019493;28;20025;-94
2021/04/05 12:15:11;;;;;;;2.67;1.80;;;18.30;45.30;;;;;;5016493;28;20022;-93
2021/04/05 12:17:40;;;;;;;0.47;0.35;;;18.30;46.60;;;;;;5000360;28;20037;-93
2021/04/05 12:27:41;;;;;;;0.30;0.30;;;18.80;45.70;;;;;;5015344;28;20029;-94
2021/04/05 12:30:24;;;;;;;0.60;0.22;;;18.50;45.40;;;;;;4956898;28;20038;-93
2021/04/05 12:32:53;;;;;;;1.98;1.30;;;18.70;46.10;;;;;;4940341;29;20043;-94
2021/04/05 12:35:22;;;;;;;1.27;0.57;;;18.20;47.90;;;;;;4943386;28;20031;-94
2021/04/05 12:38:14;;;;;;;0.15;0.10;;;18.00;47.70;;;;;;4959657;28;20035;-93
2021/04/05 12:40:41;;;;;;;0.32;0.32;;;18.10;47.60;;;;;;4960051;28;20138;-93
2021/04/05 12:43:13;;;;;;;0.28;0.28;;;17.90;46.90;;;;;;4959819;28;20038;-93
2021/04/05 12:45:50;;;;;;;0.10;0.10;;;18.10;47.40;;;;;;4959531;28;20034;-93
2021/04/05 12:48:25;;;;;;;1.85;0.47;;;18.30;47.40;;;;;;4959023;28;20038;-93
2021/04/05 12:51:02;;;;;;;0.98;0.85;;;18.50;47.50;;;;;;4955886;28;20534;-94
2021/04/05 12:53:32;;;;;;;0.68;0.65;;;18.30;46.90;;;;;;4956371;28;20039;-93
2021/04/05 12:56:00;;;;;;;1.38;0.38;;;18.10;47.50;;;;;;4955785;28;20030;-94
2021/04/05 12:58:36;;;;;;;0.10;0.10;;;18.30;47.30;;;;;;4955673;28;20047;-93
2021/04/05 13:01:04;;;;;;;0.35;0.35;;;18.40;47.10;;;;;;4952499;29;20035;-94
2021/04/05 13:03:36;;;;;;;0.43;0.43;;;18.50;46.00;;;;;;4956163;28;20492;-92
2021/04/05 13:06:04;;;;;;;0.50;0.50;;;18.30;46.10;;;;;;4991171;28;20117;-93
2021/04/05 13:08:56;;;;;;;0.60;0.57;;;18.00;47.80;;;;;;5047576;28;20052;-93
2021/04/05 13:11:26;;;;;;;0.68;0.20;;;18.00;48.50;;;;;;5051227;28;20026;-93
2021/04/05 13:14:11;;;;;;;0.10;0.10;;;18.00;46.90;;;;;;5054382;28;20021;-93
2021/04/05 13:17:08;;;;;;;0.10;0.10;;;18.20;47.30;;;;;;5054449;28;20021;-93
2021/04/05 13:19:44;;;;;;;0.05;0.05;;;18.40;47.00;;;;;;5052456;28;20563;-93
2021/04/05 13:22:20;;;;;;;0.00;0.00;;;17.90;47.60;;;;;;5054053;28;20064;-94
2021/04/05 13:25:07;;;;;;;0.08;0.08;;;18.00;47.50;;;;;;5051941;28;20093;-93
2021/04/05 13:27:34;;;;;;;0.10;0.10;;;18.00;47.50;;;;;;5053969;28;20388;-93
2021/04/05 13:30:10;;;;;;;0.10;0.10;;;17.80;47.50;;;;;;5054408;28;20378;-93
2021/04/05 13:32:38;;;;;;;0.20;0.20;;;17.90;47.50;;;;;;5055460;28;20070;-94
2021/04/05 13:35:14;;;;;;;0.32;0.32;;;17.90;48.00;;;;;;5053477;28;20028;-92
2021/04/05 13:37:46;;;;;;;0.40;0.22;;;18.00;46.60;;;;;;5050371;28;20071;-92
2021/04/05 13:40:19;;;;;;;0.25;0.25;;;17.90;47.70;;;;;;5050795;28;20060;-92
2021/04/05 13:42:47;;;;;;;0.00;0.00;;;18.20;48.30;;;;;;5049885;28;20116;-92
2021/04/05 13:45:15;;;;;;;0.20;0.20;;;18.00;60.40;;;;;;5050506;28;20056;-92
2021/04/05 13:47:48;;;;;;;1.15;0.75;;;17.90;48.10;;;;;;5043830;28;20029;-92
2021/04/05 13:50:19;;;;;;;0.22;0.22;;;18.20;48.00;;;;;;5066834;28;20024;-92
2021/04/05 13:52:54;;;;;;;0.10;0.10;;;17.80;48.40;;;;;;5068747;28;20033;-92
2021/04/05 13:55:27;;;;;;;0.32;0.30;;;17.80;47.50;;;;;;5051894;28;20033;-92
2021/04/05 13:57:56;;;;;;;0.00;0.00;;;17.70;48.60;;;;;;5055485;28;20025;-92